Green Cape, Australia
Current Conditions -  °F | °C
As of 3:00 PM on Thursday 27 Nov 2014 (Local Time) from YMER Reporting Station
Clear Clear  
Wind Chill: 66°   Ceiling: Unl
Heat Index: 66°   Visibility: 6mi
Dew Point: 52°   Wind: 12mph
Humidity: 60%   Direction: 120°ESE
Pressure: 30.21"   Gusts: NA
Location:  37.26°S, 150.05°E
Report Text: YMER 270400Z AUTO 12010KT 9999 // NCD 19/11 Q1023
Loading
Personal Weather Stations






























Interactive Weather Map New forecast layout! Learn more

10-Day Weather Forecast

Advertisements
Track Severe Weather on mobile